Time;durP1;ratioP1;P1;durP2;ratioP2;P2;SDS_P1;SDS_P2;PMS_P1;PMS_P2;Temp;Humidity;BMP_temperature;BMP_pressure;BME280_temperature;BME280_humidity;BME280_pressure;Samples;Min_cycle;Max_cycle;Signal;HPM_P1;HPM_P2
2023/12/30 00:02:16;;;;;;;1.83;0.47;;;6.40;99.90;;;;;;4952249;28;20194;-58
2023/12/30 00:04:42;;;;;;;0.90;0.50;;;6.40;99.90;;;;;;4954433;28;20289;-57
2023/12/30 00:07:07;;;;;;;1.67;0.53;;;6.30;99.90;;;;;;4946362;28;20194;-59
2023/12/30 00:09:33;;;;;;;1.60;0.50;;;6.30;99.90;;;;;;4946613;28;20185;-55
2023/12/30 00:11:58;;;;;;;1.97;0.47;;;6.40;99.90;;;;;;4946015;28;20196;-55
2023/12/30 00:14:24;;;;;;;2.53;0.50;;;6.30;99.90;;;;;;4946341;28;20214;-59
2023/12/30 00:16:49;;;;;;;0.53;0.40;;;6.30;99.90;;;;;;4954388;28;20327;-59
2023/12/30 00:19:15;;;;;;;0.60;0.40;;;6.30;99.90;;;;;;4952270;28;20191;-56
2023/12/30 00:21:40;;;;;;;3.40;0.50;;;6.30;99.90;;;;;;4947543;29;20194;-56
2023/12/30 00:24:07;;;;;;;1.63;0.37;;;6.20;99.90;;;;;;4952619;29;20222;-58
2023/12/30 00:26:33;;;;;;;5.00;0.40;;;6.20;99.90;;;;;;4950149;28;20286;-60
2023/12/30 00:28:59;;;;;;;2.60;0.40;;;6.30;99.90;;;;;;4942660;29;20654;-57
2023/12/30 00:31:26;;;;;;;1.43;0.37;;;6.30;99.90;;;;;;4953954;28;20595;-60
2023/12/30 00:33:58;;;;;;;2.10;0.50;;;6.30;99.90;;;;;;4953299;28;20250;-57
2023/12/30 00:36:24;;;;;;;3.50;0.60;;;6.30;99.90;;;;;;4950991;28;20263;-59
2023/12/30 00:38:54;;;;;;;4.67;0.50;;;6.20;99.90;;;;;;4949011;29;20654;-58
2023/12/30 00:41:23;;;;;;;3.33;0.60;;;6.20;99.90;;;;;;4953023;28;20195;-59
2023/12/30 00:43:49;;;;;;;2.03;0.50;;;6.30;99.90;;;;;;4947013;28;20298;-60
2023/12/30 00:46:14;;;;;;;3.27;0.70;;;6.30;99.90;;;;;;4940767;29;20625;-57
2023/12/30 00:48:40;;;;;;;3.57;0.53;;;6.30;99.90;;;;;;4947259;29;20186;-58
2023/12/30 00:51:05;;;;;;;2.90;0.53;;;6.40;99.90;;;;;;4945349;28;20195;-59
2023/12/30 00:53:31;;;;;;;3.80;0.50;;;6.40;99.90;;;;;;4937508;29;20701;-57
2023/12/30 00:55:57;;;;;;;4.37;0.70;;;6.40;99.90;;;;;;4953747;28;20709;-59
2023/12/30 00:58:23;;;;;;;1.03;0.70;;;6.40;99.90;;;;;;4953489;28;20230;-60
2023/12/30 01:00:50;;;;;;;2.13;0.73;;;6.40;99.90;;;;;;4953557;28;20257;-59
2023/12/30 01:03:15;;;;;;;4.27;0.93;;;6.40;99.90;;;;;;4950853;28;20202;-60
2023/12/30 01:05:41;;;;;;;5.33;1.40;;;6.30;99.90;;;;;;4947187;29;20681;-57
2023/12/30 01:08:07;;;;;;;2.00;1.27;;;6.30;99.90;;;;;;4952728;29;20249;-59
2023/12/30 01:10:32;;;;;;;5.33;1.57;;;6.40;99.90;;;;;;4946095;29;20187;-59
2023/12/30 01:12:58;;;;;;;11.93;1.50;;;6.50;99.90;;;;;;4952674;28;20210;-58
2023/12/30 01:15:23;;;;;;;8.30;1.70;;;6.50;99.90;;;;;;4950491;28;20195;-59
2023/12/30 01:17:49;;;;;;;7.23;1.63;;;6.60;99.90;;;;;;4948171;29;20547;-55
2023/12/30 01:20:15;;;;;;;10.73;1.93;;;6.80;99.90;;;;;;4937343;28;20202;-57
2023/12/30 01:22:40;;;;;;;7.90;1.33;;;6.80;99.90;;;;;;4947583;28;20634;-54
2023/12/30 01:25:06;;;;;;;16.87;2.07;;;6.80;99.90;;;;;;4933711;29;20637;-57
2023/12/30 01:27:32;;;;;;;6.77;1.17;;;6.90;99.90;;;;;;4933931;29;20198;-59
2023/12/30 01:29:57;;;;;;;4.83;1.33;;;7.00;99.90;;;;;;4949029;29;20186;-58
2023/12/30 01:32:23;;;;;;;10.93;1.60;;;7.10;99.90;;;;;;4936120;28;20213;-56
2023/12/30 01:34:48;;;;;;;2.37;1.20;;;7.10;99.90;;;;;;4952980;28;20285;-54
2023/12/30 01:37:14;;;;;;;13.07;1.97;;;7.20;99.90;;;;;;4951486;29;20253;-56
2023/12/30 01:39:39;;;;;;;7.03;1.30;;;7.10;99.90;;;;;;4952789;28;20186;-55
2023/12/30 01:42:05;;;;;;;4.37;1.27;;;7.10;99.90;;;;;;4944210;28;20628;-60
2023/12/30 01:44:30;;;;;;;11.50;1.37;;;7.20;99.90;;;;;;4945313;29;20222;-59
2023/12/30 01:46:58;;;;;;;4.17;1.10;;;7.20;99.90;;;;;;4952869;28;20600;-57
2023/12/30 01:49:23;;;;;;;7.27;1.57;;;7.10;99.90;;;;;;4952712;28;20187;-58
2023/12/30 01:51:50;;;;;;;9.30;1.27;;;7.10;99.90;;;;;;4952151;28;20269;-59
2023/12/30 01:54:20;;;;;;;8.03;1.17;;;7.10;99.90;;;;;;4944794;28;20294;-59
2023/12/30 01:56:47;;;;;;;6.57;1.70;;;7.10;99.90;;;;;;4944908;28;20187;-54
2023/12/30 01:59:15;;;;;;;14.93;1.80;;;7.10;99.90;;;;;;4942588;28;20281;-57
2023/12/30 02:01:40;;;;;;;6.83;1.30;;;7.10;99.90;;;;;;4945804;29;20241;-59
2023/12/30 02:04:06;;;;;;;10.30;1.50;;;7.10;99.90;;;;;;4944169;28;20213;-59
2023/12/30 02:06:32;;;;;;;13.17;2.17;;;7.10;99.90;;;;;;4944584;28;20178;-59
2023/12/30 02:08:57;;;;;;;8.83;1.60;;;7.10;99.90;;;;;;4952542;28;20186;-57
2023/12/30 02:11:23;;;;;;;5.13;1.73;;;7.10;99.90;;;;;;4952463;28;20275;-58
2023/12/30 02:13:49;;;;;;;4.63;1.77;;;7.10;99.90;;;;;;4938380;28;20214;-59
2023/12/30 02:16:14;;;;;;;7.77;1.50;;;7.10;99.90;;;;;;4934651;29;20199;-59
2023/12/30 02:18:40;;;;;;;11.43;1.83;;;7.10;99.90;;;;;;4952463;28;20214;-60
2023/12/30 02:21:06;;;;;;;10.53;1.70;;;7.00;99.90;;;;;;4944367;28;20689;-60
2023/12/30 02:23:31;;;;;;;12.33;1.90;;;7.10;99.90;;;;;;4940428;28;20210;-58
2023/12/30 02:25:57;;;;;;;7.53;1.57;;;7.10;99.90;;;;;;4940226;29;20265;-58
2023/12/30 02:28:22;;;;;;;11.27;1.63;;;7.10;99.90;;;;;;4949666;28;20186;-59
2023/12/30 02:30:48;;;;;;;8.03;1.40;;;7.10;99.90;;;;;;4933486;29;20187;-57
2023/12/30 02:33:13;;;;;;;9.90;1.50;;;7.00;99.90;;;;;;4941187;29;20223;-57
2023/12/30 02:35:42;;;;;;;5.77;1.30;;;7.00;99.90;;;;;;4952120;28;20182;-59
2023/12/30 02:38:08;;;;;;;7.03;1.47;;;6.90;99.90;;;;;;4952157;28;20193;-57
2023/12/30 02:40:34;;;;;;;9.57;1.37;;;6.90;99.90;;;;;;4948320;28;20195;-55
2023/12/30 02:42:59;;;;;;;11.47;1.60;;;6.90;99.90;;;;;;4947530;28;20222;-59
2023/12/30 02:45:25;;;;;;;9.67;1.50;;;6.90;99.90;;;;;;4936051;28;20214;-59
2023/12/30 02:47:51;;;;;;;3.93;1.07;;;6.90;99.90;;;;;;4944274;28;20661;-59
2023/12/30 02:50:16;;;;;;;6.33;1.40;;;7.00;99.90;;;;;;4951976;28;20217;-57
2023/12/30 02:52:42;;;;;;;5.87;1.60;;;6.90;99.90;;;;;;4946812;28;20203;-58
2023/12/30 02:55:08;;;;;;;9.73;1.40;;;6.90;99.90;;;;;;4933029;29;20187;-58
2023/12/30 02:57:33;;;;;;;11.27;1.50;;;6.90;99.90;;;;;;4944733;28;20659;-59
2023/12/30 02:59:59;;;;;;;10.30;1.70;;;6.90;99.90;;;;;;4944628;28;20198;-59
2023/12/30 03:02:24;;;;;;;13.43;1.80;;;6.80;99.90;;;;;;4951051;28;20199;-57
2023/12/30 03:04:51;;;;;;;12.77;1.73;;;6.80;99.90;;;;;;4945840;28;20294;-58
2023/12/30 03:07:17;;;;;;;5.20;1.37;;;6.90;99.90;;;;;;4940950;29;20270;-59
2023/12/30 03:09:43;;;;;;;14.40;1.77;;;6.90;99.90;;;;;;4942458;28;20282;-58
2023/12/30 03:12:09;;;;;;;11.77;1.87;;;7.00;99.90;;;;;;4951597;29;20186;-57
2023/12/30 03:14:34;;;;;;;10.83;1.40;;;7.00;99.90;;;;;;4940437;29;20217;-58
2023/12/30 03:17:00;;;;;;;4.17;1.17;;;7.00;99.90;;;;;;4955526;28;20662;-56
2023/12/30 03:19:26;;;;;;;15.40;2.30;;;7.00;99.90;;;;;;4952591;28;20238;-57
2023/12/30 03:21:51;;;;;;;11.03;1.60;;;7.00;99.90;;;;;;4935683;29;20290;-58
2023/12/30 03:24:17;;;;;;;5.40;1.23;;;7.00;99.90;;;;;;4937454;29;20229;-59
2023/12/30 03:26:42;;;;;;;6.40;1.50;;;7.00;99.90;;;;;;4955462;28;20186;-58
2023/12/30 03:29:08;;;;;;;5.93;1.50;;;6.90;99.90;;;;;;4947223;28;20225;-58
2023/12/30 03:31:33;;;;;;;6.17;1.37;;;6.90;99.90;;;;;;4946890;28;20788;-59
2023/12/30 03:34:00;;;;;;;10.13;1.93;;;6.80;99.90;;;;;;4947391;28;20690;-59
2023/12/30 03:36:25;;;;;;;6.60;1.30;;;6.80;99.90;;;;;;4939012;29;20198;-58
2023/12/30 03:38:52;;;;;;;7.03;1.17;;;6.80;99.90;;;;;;4955059;28;20242;-56
2023/12/30 03:41:18;;;;;;;9.23;1.93;;;6.80;99.90;;;;;;4953154;28;20191;-59
2023/12/30 03:43:44;;;;;;;9.80;1.30;;;6.80;99.90;;;;;;4940114;29;20205;-59
2023/12/30 03:46:09;;;;;;;11.80;1.40;;;6.80;99.90;;;;;;4954867;28;20646;-58
2023/12/30 03:48:36;;;;;;;10.60;1.67;;;6.90;99.90;;;;;;4954714;28;20253;-59
2023/12/30 03:51:02;;;;;;;7.73;1.97;;;6.90;99.90;;;;;;4947078;28;20179;-59
2023/12/30 03:53:27;;;;;;;11.40;1.40;;;6.90;99.90;;;;;;4953961;28;20623;-59
2023/12/30 03:55:53;;;;;;;12.53;1.50;;;6.80;99.90;;;;;;4954717;28;20191;-58
2023/12/30 03:58:19;;;;;;;11.67;2.10;;;6.80;99.90;;;;;;4953396;29;20183;-59
2023/12/30 04:00:44;;;;;;;11.60;1.77;;;6.90;99.90;;;;;;4954727;28;20646;-59
2023/12/30 04:03:10;;;;;;;6.30;1.40;;;6.80;99.90;;;;;;4945831;28;20674;-60
2023/12/30 04:05:35;;;;;;;11.83;1.57;;;6.80;99.90;;;;;;4946766;28;20333;-59
2023/12/30 04:08:01;;;;;;;5.33;1.10;;;6.80;99.90;;;;;;4946870;28;20233;-58
2023/12/30 04:10:26;;;;;;;9.07;1.43;;;6.80;99.90;;;;;;4954336;28;20182;-56
2023/12/30 04:12:52;;;;;;;8.03;1.10;;;6.80;99.90;;;;;;4953600;28;20589;-59
2023/12/30 04:15:18;;;;;;;9.83;1.30;;;6.90;99.90;;;;;;4936906;28;20198;-58
2023/12/30 04:17:43;;;;;;;8.50;1.40;;;6.90;99.90;;;;;;4935159;29;20651;-57
2023/12/30 04:20:09;;;;;;;8.37;1.10;;;7.00;99.90;;;;;;4950975;29;20190;-59
2023/12/30 04:22:35;;;;;;;4.60;1.47;;;6.90;99.90;;;;;;4945968;28;20214;-57
2023/12/30 04:25:02;;;;;;;5.70;1.13;;;7.00;99.90;;;;;;4946267;28;20745;-58
2023/12/30 04:27:28;;;;;;;10.37;1.07;;;7.00;99.90;;;;;;4953944;28;20655;-58
2023/12/30 04:29:53;;;;;;;8.10;1.57;;;7.00;99.90;;;;;;4947754;28;20195;-58
2023/12/30 04:32:20;;;;;;;7.70;0.97;;;7.10;99.90;;;;;;4943797;28;20603;-56
2023/12/30 04:34:46;;;;;;;12.23;1.13;;;7.10;99.90;;;;;;4953434;28;20758;-57
2023/12/30 04:37:13;;;;;;;13.13;1.43;;;7.10;99.90;;;;;;4946312;28;20189;-57
2023/12/30 04:39:38;;;;;;;11.63;1.70;;;7.20;99.90;;;;;;4941591;28;20192;-54
2023/12/30 04:42:04;;;;;;;7.60;1.30;;;7.20;99.90;;;;;;4949726;29;20195;-58
2023/12/30 04:44:30;;;;;;;5.00;1.20;;;7.20;99.90;;;;;;4953538;28;20222;-58
2023/12/30 04:46:56;;;;;;;7.27;1.20;;;7.10;99.90;;;;;;4953836;28;20226;-59
2023/12/30 04:49:21;;;;;;;9.33;1.87;;;7.10;99.90;;;;;;4945855;28;20195;-56
2023/12/30 04:51:47;;;;;;;8.00;1.43;;;7.10;99.90;;;;;;4947595;28;20183;-58
2023/12/30 04:54:13;;;;;;;5.10;1.00;;;7.00;99.90;;;;;;4950330;28;20306;-59
2023/12/30 04:56:38;;;;;;;6.00;1.10;;;6.90;99.90;;;;;;4946826;29;20199;-56
2023/12/30 04:59:04;;;;;;;7.47;1.10;;;6.80;99.90;;;;;;4945995;28;20730;-57
2023/12/30 05:01:31;;;;;;;14.00;1.33;;;6.90;99.90;;;;;;4953077;29;20556;-57
2023/12/30 05:03:57;;;;;;;9.70;1.47;;;6.80;99.90;;;;;;4946122;28;20218;-58
2023/12/30 05:06:23;;;;;;;6.23;1.30;;;6.80;99.90;;;;;;4952273;29;20178;-59
2023/12/30 05:08:50;;;;;;;6.77;1.10;;;6.80;99.90;;;;;;4953490;28;20684;-56
2023/12/30 05:11:16;;;;;;;6.40;1.30;;;6.70;99.90;;;;;;4952297;28;20470;-57
2023/12/30 05:13:44;;;;;;;9.10;1.30;;;6.60;99.90;;;;;;4933987;29;20604;-54
2023/12/30 05:16:10;;;;;;;8.20;1.63;;;6.60;99.90;;;;;;4934482;29;20187;-53
2023/12/30 05:18:36;;;;;;;8.10;1.13;;;6.60;99.90;;;;;;4946095;29;20237;-52
2023/12/30 05:21:02;;;;;;;8.57;1.23;;;6.60;99.90;;;;;;4945791;28;20187;-54
2023/12/30 05:23:28;;;;;;;4.67;0.90;;;6.60;99.90;;;;;;4941970;28;20195;-58
2023/12/30 05:25:53;;;;;;;6.63;1.30;;;6.60;99.90;;;;;;4948047;29;20198;-59
2023/12/30 05:28:19;;;;;;;6.50;1.47;;;6.70;99.90;;;;;;4944998;28;20187;-55
2023/12/30 05:30:44;;;;;;;10.83;1.37;;;6.80;99.90;;;;;;4953035;28;20179;-57
2023/12/30 05:33:10;;;;;;;5.13;1.17;;;6.70;99.90;;;;;;4951948;28;20229;-57
2023/12/30 05:35:36;;;;;;;9.83;1.07;;;6.70;99.90;;;;;;4952957;28;20197;-57
2023/12/30 05:38:03;;;;;;;9.50;1.90;;;6.90;99.90;;;;;;4944939;28;20182;-56
2023/12/30 05:40:29;;;;;;;9.60;1.23;;;6.90;99.90;;;;;;4944798;28;20521;-58
2023/12/30 05:42:55;;;;;;;7.63;1.43;;;6.90;99.90;;;;;;4952164;28;20274;-55
2023/12/30 05:45:20;;;;;;;6.50;1.30;;;6.90;99.90;;;;;;4942866;28;20655;-59
2023/12/30 05:47:46;;;;;;;5.77;1.00;;;6.80;99.90;;;;;;4941661;29;20194;-53
2023/12/30 05:50:12;;;;;;;5.87;1.20;;;6.60;99.90;;;;;;4942402;28;20186;-56
2023/12/30 05:52:38;;;;;;;11.20;1.20;;;6.50;99.90;;;;;;4952018;28;20720;-57
2023/12/30 05:55:04;;;;;;;12.20;1.47;;;6.40;99.90;;;;;;4944773;28;20178;-59
2023/12/30 05:57:30;;;;;;;8.30;1.30;;;6.40;99.90;;;;;;4952542;28;20174;-57
2023/12/30 05:59:56;;;;;;;9.83;1.73;;;6.40;99.90;;;;;;4938119;28;20254;-56
2023/12/30 06:02:22;;;;;;;11.03;1.33;;;6.40;99.90;;;;;;4950407;28;20229;-59
2023/12/30 06:04:47;;;;;;;9.87;1.27;;;6.40;99.90;;;;;;4944387;28;20215;-58
2023/12/30 06:07:13;;;;;;;7.00;1.37;;;6.30;99.90;;;;;;4952341;28;20270;-57
2023/12/30 06:09:38;;;;;;;8.90;1.30;;;6.30;99.90;;;;;;4952473;28;20194;-58
2023/12/30 06:12:04;;;;;;;7.37;1.30;;;6.30;99.90;;;;;;4936462;28;20191;-58
2023/12/30 06:14:30;;;;;;;4.53;1.20;;;6.40;99.90;;;;;;4948802;29;20250;-58
2023/12/30 06:16:55;;;;;;;9.03;1.37;;;6.40;99.90;;;;;;4947646;29;20758;-58
2023/12/30 06:19:21;;;;;;;8.83;1.50;;;6.40;99.90;;;;;;4950259;28;20599;-57
2023/12/30 06:21:46;;;;;;;9.07;1.80;;;6.30;99.90;;;;;;4937956;29;20194;-55
2023/12/30 06:24:12;;;;;;;9.00;1.70;;;6.40;99.90;;;;;;4943387;28;20633;-57
2023/12/30 06:26:38;;;;;;;18.87;1.87;;;6.30;99.90;;;;;;4937317;29;20658;-57
2023/12/30 06:29:05;;;;;;;7.53;1.57;;;6.30;99.90;;;;;;4936683;28;20274;-58
2023/12/30 06:31:31;;;;;;;5.20;1.53;;;6.30;99.90;;;;;;4943958;29;20229;-56
2023/12/30 06:33:57;;;;;;;8.67;1.60;;;6.30;99.90;;;;;;4943537;28;20249;-58
2023/12/30 06:36:25;;;;;;;3.90;1.50;;;6.30;99.90;;;;;;4944307;28;20717;-58
2023/12/30 06:38:51;;;;;;;13.80;1.70;;;6.30;99.90;;;;;;4952265;28;20265;-57
2023/12/30 06:41:19;;;;;;;9.33;1.80;;;6.40;99.90;;;;;;4944229;28;20663;-59
2023/12/30 06:43:46;;;;;;;8.33;1.23;;;6.40;99.90;;;;;;4951324;28;20202;-57
2023/12/30 06:46:11;;;;;;;7.93;1.40;;;6.50;99.90;;;;;;4955916;28;20193;-57
2023/12/30 06:48:37;;;;;;;9.30;1.43;;;6.50;99.90;;;;;;4948297;28;20183;-59
2023/12/30 06:51:02;;;;;;;12.47;1.87;;;6.50;99.90;;;;;;4948004;28;20186;-59
2023/12/30 06:53:34;;;;;;;9.13;2.00;;;6.60;99.90;;;;;;4954977;28;20198;-57
2023/12/30 06:56:04;;;;;;;7.67;1.30;;;6.60;99.90;;;;;;4948950;28;20192;-59
2023/12/30 06:58:30;;;;;;;12.00;1.80;;;6.60;99.90;;;;;;4955360;29;20258;-59
2023/12/30 07:00:56;;;;;;;8.90;1.47;;;6.60;99.90;;;;;;4955864;28;20359;-58
2023/12/30 07:03:22;;;;;;;7.87;1.40;;;6.60;99.90;;;;;;4954617;28;20571;-57
2023/12/30 07:05:47;;;;;;;4.60;1.17;;;6.50;99.90;;;;;;4955644;28;20215;-55
2023/12/30 07:08:13;;;;;;;9.97;1.97;;;6.40;99.90;;;;;;4955386;28;20182;-59
2023/12/30 07:10:39;;;;;;;9.70;1.30;;;6.30;99.90;;;;;;4955633;28;20186;-56
2023/12/30 07:13:07;;;;;;;7.97;1.47;;;6.30;99.90;;;;;;4954997;28;20285;-58
2023/12/30 07:15:33;;;;;;;15.83;1.53;;;6.20;99.90;;;;;;4955819;28;20524;-58
2023/12/30 07:17:59;;;;;;;6.57;1.40;;;6.20;99.90;;;;;;4955529;28;20241;-59
2023/12/30 07:20:28;;;;;;;7.43;1.90;;;6.20;99.90;;;;;;4947510;28;20213;-57
2023/12/30 07:22:54;;;;;;;12.90;1.30;;;6.20;99.90;;;;;;4955163;28;20218;-58
2023/12/30 07:25:20;;;;;;;10.07;1.57;;;6.20;99.90;;;;;;4953558;28;20203;-60
2023/12/30 07:27:45;;;;;;;5.17;1.00;;;6.10;99.90;;;;;;4944138;29;20191;-58
2023/12/30 07:30:11;;;;;;;10.17;1.10;;;6.00;99.90;;;;;;4944581;29;20194;-54
2023/12/30 07:32:37;;;;;;;9.87;1.80;;;6.10;99.90;;;;;;4942668;28;20206;-58
2023/12/30 07:35:05;;;;;;;5.63;1.10;;;6.10;99.90;;;;;;4943931;29;20194;-54
2023/12/30 07:37:32;;;;;;;9.73;1.30;;;6.10;99.90;;;;;;4954846;29;20213;-58
2023/12/30 07:39:57;;;;;;;8.27;1.00;;;6.10;99.90;;;;;;4948152;28;20663;-59
2023/12/30 07:42:23;;;;;;;6.20;1.10;;;6.20;99.90;;;;;;4950038;29;20225;-57
2023/12/30 07:44:48;;;;;;;7.37;1.20;;;6.20;99.90;;;;;;4948398;28;20269;-58
2023/12/30 07:47:14;;;;;;;5.00;1.23;;;6.30;99.90;;;;;;4953618;28;20198;-59
2023/12/30 07:49:40;;;;;;;5.63;1.00;;;6.20;99.90;;;;;;4943033;29;20179;-57
2023/12/30 07:52:05;;;;;;;10.43;1.10;;;6.20;99.90;;;;;;4949581;29;20182;-56
2023/12/30 07:54:31;;;;;;;5.23;1.20;;;6.30;99.90;;;;;;4945790;28;20213;-54
2023/12/30 07:56:56;;;;;;;8.23;1.40;;;6.30;99.90;;;;;;4952841;28;20646;-54
2023/12/30 07:59:22;;;;;;;11.60;1.80;;;6.30;99.90;;;;;;4954267;28;20330;-55
2023/12/30 08:01:47;;;;;;;5.20;1.30;;;6.40;99.90;;;;;;4953516;28;20206;-56
2023/12/30 08:04:13;;;;;;;7.23;1.37;;;6.50;99.90;;;;;;4946193;28;20584;-58
2023/12/30 08:06:40;;;;;;;4.67;1.00;;;6.60;99.90;;;;;;4953989;28;20297;-56
2023/12/30 08:09:06;;;;;;;11.57;1.30;;;6.50;99.90;;;;;;4953832;28;20190;-54
2023/12/30 08:11:34;;;;;;;8.03;0.93;;;6.60;99.90;;;;;;4946007;28;20194;-56
2023/12/30 08:14:00;;;;;;;9.83;1.90;;;6.70;99.90;;;;;;4946764;28;20327;-59
2023/12/30 08:16:25;;;;;;;10.17;2.03;;;6.70;99.90;;;;;;4942459;29;20260;-57
2023/12/30 08:18:51;;;;;;;12.50;1.30;;;6.80;99.90;;;;;;4948122;29;20186;-58
2023/12/30 08:21:16;;;;;;;12.57;2.10;;;6.90;99.90;;;;;;4953096;28;20572;-55
2023/12/30 08:23:42;;;;;;;7.77;1.50;;;6.80;99.90;;;;;;4940478;28;20674;-57
2023/12/30 08:26:07;;;;;;;5.90;1.40;;;6.80;99.90;;;;;;4942413;29;20674;-57
2023/12/30 08:28:33;;;;;;;3.83;0.80;;;6.90;99.90;;;;;;4937553;29;20646;-57
2023/12/30 08:30:59;;;;;;;6.30;1.00;;;6.90;99.90;;;;;;4953569;28;20182;-55
2023/12/30 08:33:26;;;;;;;5.53;1.17;;;6.90;99.90;;;;;;4942329;28;20725;-57
2023/12/30 08:35:52;;;;;;;7.00;1.00;;;7.00;99.90;;;;;;4939969;29;20187;-59
2023/12/30 08:38:18;;;;;;;4.07;0.70;;;7.00;99.90;;;;;;4953348;28;20202;-58
2023/12/30 08:40:43;;;;;;;4.17;1.23;;;7.00;99.90;;;;;;4945721;28;20662;-58
2023/12/30 08:43:10;;;;;;;2.87;0.80;;;7.00;99.90;;;;;;4944598;28;20202;-58
2023/12/30 08:45:36;;;;;;;7.87;1.00;;;7.00;99.90;;;;;;4949749;28;20211;-57
2023/12/30 08:48:03;;;;;;;4.63;0.90;;;7.00;99.90;;;;;;4933894;29;20186;-58
2023/12/30 08:50:30;;;;;;;6.50;1.13;;;7.00;99.90;;;;;;4933823;29;20187;-58
2023/12/30 08:52:55;;;;;;;5.07;1.20;;;7.00;99.90;;;;;;4947529;28;20204;-58
2023/12/30 08:55:21;;;;;;;6.40;1.27;;;7.00;99.90;;;;;;4945358;28;20195;-59
2023/12/30 08:57:46;;;;;;;4.03;1.60;;;7.10;99.90;;;;;;4940020;28;20214;-57
2023/12/30 09:00:13;;;;;;;7.10;1.50;;;7.10;99.90;;;;;;4950048;29;20236;-59
2023/12/30 09:02:46;;;;;;;8.43;1.40;;;7.10;99.90;;;;;;4952195;28;20202;-54
2023/12/30 09:05:13;;;;;;;4.17;1.20;;;7.10;99.90;;;;;;4944166;28;20212;-58
2023/12/30 09:07:39;;;;;;;5.53;1.10;;;7.20;99.90;;;;;;4933544;29;20183;-59
2023/12/30 09:10:06;;;;;;;5.23;1.10;;;7.40;99.90;;;;;;4933709;29;20520;-60
2023/12/30 09:12:31;;;;;;;9.37;1.40;;;7.60;99.90;;;;;;4948890;29;20191;-59
2023/12/30 09:14:57;;;;;;;7.70;1.07;;;7.70;99.90;;;;;;4942858;29;20199;-59
2023/12/30 09:17:23;;;;;;;8.10;1.30;;;7.80;99.90;;;;;;4944708;28;20195;-56
2023/12/30 09:19:48;;;;;;;2.73;1.00;;;8.00;99.90;;;;;;4952541;28;20194;-58
2023/12/30 09:22:14;;;;;;;5.40;1.00;;;8.20;99.90;;;;;;4943934;28;20199;-59
2023/12/30 09:24:41;;;;;;;6.00;1.27;;;8.30;99.90;;;;;;4944609;28;20234;-59
2023/12/30 09:27:08;;;;;;;9.60;1.40;;;8.40;99.90;;;;;;4952619;28;20209;-57
2023/12/30 09:29:33;;;;;;;28.40;2.77;;;8.50;99.90;;;;;;4944467;28;20178;-57
2023/12/30 09:31:59;;;;;;;16.30;1.40;;;8.60;99.90;;;;;;4951668;28;20265;-59
2023/12/30 09:34:25;;;;;;;21.33;2.23;;;8.70;99.90;;;;;;4943709;28;20223;-56
2023/12/30 09:36:50;;;;;;;61.57;7.97;;;8.80;99.90;;;;;;4952381;28;20219;-59
2023/12/30 09:39:16;;;;;;;45.10;7.77;;;8.90;99.90;;;;;;4944088;28;20569;-59
2023/12/30 09:41:41;;;;;;;32.93;8.53;;;9.10;99.90;;;;;;4947521;28;20210;-56
2023/12/30 09:44:08;;;;;;;32.83;8.77;;;9.20;99.90;;;;;;4940726;29;20222;-57
2023/12/30 09:46:37;;;;;;;24.23;8.03;;;9.20;99.90;;;;;;4935654;28;20237;-61
2023/12/30 09:49:04;;;;;;;38.23;8.33;;;9.30;99.90;;;;;;4942188;29;20745;-59
2023/12/30 09:51:31;;;;;;;36.80;11.13;;;9.40;99.90;;;;;;4940776;28;20191;-58
2023/12/30 09:53:57;;;;;;;33.93;8.33;;;9.60;99.90;;;;;;4942250;28;20202;-59
2023/12/30 09:56:24;;;;;;;47.10;7.60;;;9.80;99.90;;;;;;4951859;28;20198;-58
2023/12/30 09:58:50;;;;;;;22.47;6.27;;;9.70;99.90;;;;;;4952032;28;20212;-58
2023/12/30 10:01:16;;;;;;;18.80;4.57;;;9.80;99.90;;;;;;4951912;28;20178;-57
2023/12/30 10:03:42;;;;;;;11.30;4.60;;;9.90;99.90;;;;;;4946460;28;20217;-57
2023/12/30 10:06:12;;;;;;;14.47;3.90;;;10.00;99.90;;;;;;4939885;29;20277;-59
2023/12/30 10:08:37;;;;;;;13.17;2.07;;;10.10;99.90;;;;;;4944454;29;20217;-57
2023/12/30 10:11:08;;;;;;;9.50;2.17;;;9.90;99.90;;;;;;4944903;28;20211;-59
2023/12/30 10:13:38;;;;;;;6.53;1.50;;;9.50;99.90;;;;;;4948015;29;20226;-59
2023/12/30 10:16:05;;;;;;;11.53;1.63;;;9.30;99.90;;;;;;4933071;29;20683;-57
2023/12/30 10:18:32;;;;;;;10.07;1.93;;;9.20;99.90;;;;;;4947903;28;20187;-58
2023/12/30 10:20:58;;;;;;;7.63;1.23;;;9.30;99.90;;;;;;4946777;29;20190;-59
2023/12/30 10:23:26;;;;;;;8.70;1.83;;;9.50;99.90;;;;;;4941001;28;20577;-57
2023/12/30 10:25:52;;;;;;;9.67;2.27;;;9.50;99.90;;;;;;4938125;29;20218;-56
2023/12/30 10:28:18;;;;;;;9.33;1.70;;;9.50;99.90;;;;;;4950327;28;20183;-56
2023/12/30 10:30:43;;;;;;;9.37;1.67;;;9.60;99.90;;;;;;4944934;29;20581;-52
2023/12/30 10:33:13;;;;;;;7.80;1.43;;;9.60;99.90;;;;;;4950886;28;20233;-57
2023/12/30 10:35:40;;;;;;;10.10;1.63;;;9.60;99.90;;;;;;4944439;29;20197;-52
2023/12/30 10:38:12;;;;;;;7.13;1.57;;;9.70;99.90;;;;;;4951890;28;20178;-54
2023/12/30 10:40:39;;;;;;;6.43;1.47;;;9.80;99.90;;;;;;4940132;28;20191;-55
2023/12/30 10:43:06;;;;;;;9.63;1.50;;;9.80;99.90;;;;;;4946896;28;20284;-54
2023/12/30 10:45:32;;;;;;;16.50;2.13;;;9.90;99.90;;;;;;4948363;28;20207;-56
2023/12/30 10:47:59;;;;;;;7.70;1.70;;;9.90;99.90;;;;;;4938757;29;20198;-52
2023/12/30 10:50:26;;;;;;;8.80;1.80;;;9.80;99.90;;;;;;4943782;28;20204;-52
2023/12/30 10:53:02;;;;;;;5.90;1.50;;;9.80;99.90;;;;;;4950903;28;20207;-54
2023/12/30 10:55:33;;;;;;;12.73;2.50;;;9.60;99.90;;;;;;4942016;29;20194;-51
2023/12/30 10:58:22;;;;;;;7.67;1.40;;;9.50;99.90;;;;;;4950808;28;20187;-55
2023/12/30 11:00:53;;;;;;;7.20;2.13;;;9.60;99.90;;;;;;4932367;29;20667;-53
2023/12/30 11:03:19;;;;;;;7.43;1.87;;;9.70;99.90;;;;;;4948232;28;20470;-52
2023/12/30 11:05:54;;;;;;;15.00;3.53;;;9.80;99.90;;;;;;4946657;28;20214;-60
2023/12/30 11:08:20;;;;;;;40.37;13.50;;;10.00;99.90;;;;;;4932115;29;20615;-58
2023/12/30 11:10:46;;;;;;;8.10;1.70;;;10.10;99.90;;;;;;4945174;29;20282;-52
2023/12/30 11:13:12;;;;;;;8.50;2.50;;;10.20;99.90;;;;;;4934565;28;20210;-52
2023/12/30 11:15:41;;;;;;;10.33;2.00;;;10.20;99.90;;;;;;4947627;28;20278;-52
2023/12/30 11:18:12;;;;;;;9.73;2.40;;;10.20;99.90;;;;;;4947454;29;20505;-54
2023/12/30 11:20:46;;;;;;;9.73;1.87;;;10.30;99.90;;;;;;4939955;29;20250;-53
2023/12/30 11:23:14;;;;;;;10.60;1.97;;;10.30;99.90;;;;;;4939427;29;20219;-51
2023/12/30 11:25:46;;;;;;;12.03;2.77;;;10.40;99.90;;;;;;4943592;29;20241;-63
2023/12/30 11:28:22;;;;;;;9.93;1.43;;;10.30;99.90;;;;;;4943252;28;20238;-50
2023/12/30 11:30:58;;;;;;;7.53;1.50;;;10.10;99.90;;;;;;4952579;28;20209;-50
2023/12/30 11:33:24;;;;;;;7.27;1.30;;;10.10;99.90;;;;;;4943741;28;20624;-50
2023/12/30 11:35:52;;;;;;;5.73;1.23;;;10.20;99.90;;;;;;4939943;29;20217;-51
2023/12/30 11:38:18;;;;;;;12.13;1.47;;;10.20;99.90;;;;;;4945506;28;20576;-52
2023/12/30 11:40:52;;;;;;;6.33;1.30;;;10.40;99.90;;;;;;4947548;29;20187;-52
2023/12/30 11:43:20;;;;;;;9.83;2.13;;;10.40;99.90;;;;;;4945949;28;20291;-56
2023/12/30 11:45:46;;;;;;;7.17;1.27;;;10.50;99.90;;;;;;4954066;28;20218;-52
2023/12/30 11:48:11;;;;;;;8.40;1.90;;;10.60;99.90;;;;;;4953845;28;20194;-56
2023/12/30 11:50:37;;;;;;;7.50;1.77;;;11.00;99.90;;;;;;4943116;29;20179;-52
2023/12/30 11:53:03;;;;;;;9.03;1.70;;;11.40;99.90;;;;;;4949187;29;20225;-55
2023/12/30 11:55:29;;;;;;;7.43;1.50;;;11.70;99.90;;;;;;4946194;28;20220;-50
2023/12/30 11:57:56;;;;;;;8.83;2.20;;;11.60;99.90;;;;;;4945964;28;20183;-51
2023/12/30 12:00:24;;;;;;;8.37;1.93;;;11.80;99.90;;;;;;4952121;28;20186;-53
2023/12/30 12:02:50;;;;;;;9.00;2.13;;;12.10;99.90;;;;;;4947210;28;20211;-54
2023/12/30 12:05:16;;;;;;;6.50;1.70;;;12.60;99.90;;;;;;4945834;28;20234;-53
2023/12/30 12:07:42;;;;;;;10.60;2.30;;;12.70;99.90;;;;;;4953855;28;20253;-53
2023/12/30 12:10:08;;;;;;;9.63;1.70;;;12.50;99.90;;;;;;4938658;28;20682;-52
2023/12/30 12:12:39;;;;;;;8.87;2.33;;;12.80;99.90;;;;;;4952794;28;20662;-53
2023/12/30 12:15:06;;;;;;;8.10;1.77;;;12.90;99.90;;;;;;4945982;28;20262;-52
2023/12/30 12:17:32;;;;;;;6.40;1.70;;;12.90;99.90;;;;;;4950348;29;20191;-54
2023/12/30 12:19:58;;;;;;;7.60;1.77;;;12.90;99.90;;;;;;4934512;29;20206;-53
2023/12/30 12:22:24;;;;;;;6.63;1.43;;;13.00;99.90;;;;;;4941891;29;20762;-50
2023/12/30 12:24:49;;;;;;;11.60;2.23;;;13.10;99.90;;;;;;4947375;29;20206;-50
2023/12/30 12:27:20;;;;;;;15.50;1.83;;;13.20;99.90;;;;;;4953363;28;20194;-53
2023/12/30 12:29:48;;;;;;;7.57;2.10;;;13.20;99.90;;;;;;4949068;28;20183;-55
2023/12/30 12:32:15;;;;;;;7.33;1.47;;;13.00;99.90;;;;;;4941564;29;20251;-53
2023/12/30 12:34:41;;;;;;;8.83;1.80;;;12.70;99.90;;;;;;4943724;28;20574;-54
2023/12/30 12:37:12;;;;;;;7.73;1.70;;;12.70;99.90;;;;;;4941930;29;20194;-51
2023/12/30 12:39:38;;;;;;;7.07;1.30;;;12.50;99.90;;;;;;4945248;29;20197;-54
2023/12/30 12:42:04;;;;;;;11.40;3.77;;;12.20;99.90;;;;;;4951940;28;20181;-51
2023/12/30 12:44:30;;;;;;;10.97;2.53;;;12.10;99.90;;;;;;4950748;28;20214;-53
2023/12/30 12:46:55;;;;;;;6.47;2.50;;;11.80;99.90;;;;;;4947922;29;20214;-54
2023/12/30 12:49:22;;;;;;;6.50;1.53;;;11.70;99.90;;;;;;4952981;28;20218;-51